createdAt,value
2023-10-20T00:01:58.529Z,43.65
2023-10-20T00:04:26.162Z,44.33
2023-10-20T00:06:53.781Z,42.47
2023-10-20T00:09:21.732Z,42.92
2023-10-20T00:11:49.573Z,43.88
2023-10-20T00:14:17.653Z,44.38
2023-10-20T00:16:45.441Z,44.30
2023-10-20T00:19:13.123Z,42.95
2023-10-20T00:21:40.879Z,43.53
2023-10-20T00:24:08.856Z,43.60
2023-10-20T00:26:36.838Z,43.15
2023-10-20T00:29:04.538Z,44.10
2023-10-20T00:31:32.326Z,43.47
2023-10-20T00:33:59.909Z,44.42
2023-10-20T00:36:29.183Z,45.15
2023-10-20T00:38:56.846Z,45.28
2023-10-20T00:41:24.599Z,45.80
2023-10-20T00:43:52.455Z,45.35
2023-10-20T00:46:20.482Z,44.40
2023-10-20T00:48:48.885Z,44.45
2023-10-20T00:51:16.937Z,44.17
2023-10-20T00:53:45.024Z,44.60
2023-10-20T00:56:13.254Z,43.83
2023-10-20T00:58:40.722Z,43.25
2023-10-20T01:01:08.247Z,43.92
2023-10-20T01:03:37.244Z,44.40
2023-10-20T01:06:05.969Z,45.05
2023-10-20T01:08:33.770Z,44.03
2023-10-20T01:11:01.436Z,46.33
2023-10-20T01:13:29.096Z,45.15
2023-10-20T01:15:57.157Z,44.47
2023-10-20T01:18:24.884Z,43.28
2023-10-20T01:20:52.866Z,42.88
2023-10-20T01:23:20.601Z,45.53
2023-10-20T01:25:48.185Z,43.58
2023-10-20T01:28:17.816Z,44.05
2023-10-20T01:30:46.204Z,44.85
2023-10-20T01:33:13.899Z,45.53
2023-10-20T01:35:41.709Z,48.10
2023-10-20T01:38:09.336Z,48.28
2023-10-20T01:40:36.992Z,48.60
2023-10-20T01:43:05.355Z,51.08
2023-10-20T01:45:33.039Z,52.25
2023-10-20T01:48:00.899Z,51.75
2023-10-20T01:50:28.528Z,50.95
2023-10-20T01:52:56.140Z,54.55
2023-10-20T01:55:23.994Z,53.05
2023-10-20T01:57:52.189Z,53.88
2023-10-20T02:00:20.312Z,51.78
2023-10-20T02:02:48.158Z,53.50
2023-10-20T02:05:15.823Z,53.00
2023-10-20T02:07:44.218Z,51.88
2023-10-20T02:10:11.864Z,52.17
2023-10-20T02:12:39.714Z,52.95
2023-10-20T02:15:09.277Z,51.20
2023-10-20T02:17:37.388Z,49.17
2023-10-20T02:20:05.257Z,49.50
2023-10-20T02:22:33.202Z,47.33
2023-10-20T02:25:00.889Z,48.50
2023-10-20T02:27:29.822Z,47.92
2023-10-20T02:29:59.528Z,47.67
2023-10-20T02:32:27.519Z,47.30
2023-10-20T02:34:56.166Z,47.38
2023-10-20T02:37:23.931Z,46.33
2023-10-20T02:39:52.120Z,44.15
2023-10-20T02:42:19.754Z,43.05
2023-10-20T02:44:47.454Z,40.30
2023-10-20T02:47:15.633Z,41.97
2023-10-20T02:49:43.098Z,39.80
2023-10-20T02:52:14.403Z,39.33
2023-10-20T02:54:42.514Z,39.05
2023-10-20T02:57:11.333Z,38.95
2023-10-20T02:59:38.874Z,38.78
2023-10-20T03:02:06.760Z,39.63
2023-10-20T03:04:34.653Z,39.63
2023-10-20T03:07:02.553Z,40.25
2023-10-20T03:09:30.248Z,39.40
2023-10-20T03:11:57.844Z,40.95
2023-10-20T03:14:25.317Z,41.05
2023-10-20T03:16:53.180Z,42.97
2023-10-20T03:19:20.769Z,44.72
2023-10-20T03:21:49.055Z,43.85
2023-10-20T03:24:16.955Z,47.33
2023-10-20T03:26:44.735Z,45.63
2023-10-20T03:29:12.680Z,48.95
2023-10-20T03:31:42.096Z,46.15
2023-10-20T03:34:11.368Z,44.38
2023-10-20T03:36:39.009Z,46.13
2023-10-20T03:39:21.021Z,45.38
2023-10-20T03:41:50.545Z,47.25
2023-10-20T03:44:18.827Z,46.08
2023-10-20T03:46:50.999Z,45.58
2023-10-20T03:49:19.718Z,45.58
2023-10-20T03:51:54.578Z,46.05
2023-10-20T03:54:26.713Z,44.17
2023-10-20T03:56:58.262Z,43.97
2023-10-20T03:59:25.943Z,44.78
2023-10-20T04:01:53.615Z,43.17
2023-10-20T04:04:21.791Z,43.35
2023-10-20T04:06:51.162Z,43.45
2023-10-20T04:09:19.368Z,42.88
2023-10-20T04:11:47.097Z,44.00
2023-10-20T04:14:15.322Z,42.05
2023-10-20T04:16:43.710Z,43.00
2023-10-20T04:19:12.559Z,43.60
2023-10-20T04:21:45.290Z,41.85
2023-10-20T04:24:12.826Z,43.05
2023-10-20T04:26:44.412Z,42.08
2023-10-20T04:29:15.075Z,42.65
2023-10-20T04:32:01.911Z,42.55
2023-10-20T04:34:48.560Z,42.83
2023-10-20T04:37:34.876Z,40.63
2023-10-20T04:40:21.512Z,40.17
2023-10-20T04:43:08.288Z,38.05
2023-10-20T04:45:35.949Z,38.17
2023-10-20T04:48:09.733Z,38.60
2023-10-20T04:51:09.398Z,38.20
2023-10-20T04:53:37.050Z,36.05
2023-10-20T04:56:05.141Z,35.80
2023-10-20T04:58:36.806Z,36.88
2023-10-20T05:01:36.565Z,35.95
2023-10-20T05:04:14.830Z,36.13
2023-10-20T05:06:46.133Z,35.53
2023-10-20T05:09:16.796Z,36.33
2023-10-20T05:11:44.446Z,35.45
2023-10-20T05:14:12.527Z,34.05
2023-10-20T05:16:40.013Z,34.65
2023-10-20T05:19:07.663Z,32.75
2023-10-20T05:21:36.039Z,33.97
2023-10-20T05:24:05.243Z,34.42
2023-10-20T05:26:33.435Z,33.20
2023-10-20T05:29:01.275Z,34.95
2023-10-20T05:31:31.434Z,32.72
2023-10-20T05:33:59.190Z,32.47
2023-10-20T05:36:27.560Z,31.65
2023-10-20T05:38:55.104Z,32.08
2023-10-20T05:41:23.226Z,31.60
2023-10-20T05:43:54.039Z,31.70
2023-10-20T05:46:21.821Z,31.63
2023-10-20T05:48:50.701Z,31.58
2023-10-20T05:51:18.534Z,31.50
2023-10-20T05:53:46.143Z,31.63
2023-10-20T05:56:14.179Z,33.05
2023-10-20T05:58:41.769Z,32.45
2023-10-20T06:01:10.715Z,30.02
2023-10-20T06:03:39.428Z,30.40
2023-10-20T06:06:07.456Z,31.08
2023-10-20T06:08:35.377Z,30.45
2023-10-20T06:11:04.217Z,29.85
2023-10-20T06:13:36.915Z,29.10
2023-10-20T06:16:12.401Z,27.60
2023-10-20T06:18:41.300Z,28.70
2023-10-20T06:21:13.293Z,27.95
2023-10-20T06:23:41.699Z,27.38
2023-10-20T06:26:09.570Z,26.55
2023-10-20T06:28:37.457Z,26.52
2023-10-20T06:31:23.634Z,27.88
2023-10-20T06:33:58.995Z,27.80
2023-10-20T06:36:27.527Z,28.25
2023-10-20T06:38:55.706Z,27.52
2023-10-20T06:41:23.391Z,28.52
2023-10-20T06:43:52.443Z,26.88
2023-10-20T06:46:23.254Z,28.48
2023-10-20T06:48:51.009Z,28.95
2023-10-20T06:51:18.784Z,28.55
2023-10-20T06:53:46.605Z,27.70
2023-10-20T06:56:16.762Z,27.65
2023-10-20T06:58:46.372Z,28.20
2023-10-20T07:01:14.625Z,27.50
2023-10-20T07:03:42.986Z,28.70
2023-10-20T07:06:12.910Z,28.23
2023-10-20T07:08:41.142Z,28.15
2023-10-20T07:11:09.089Z,27.13
2023-10-20T07:13:36.590Z,26.48
2023-10-20T07:16:04.445Z,26.40
2023-10-20T07:18:32.120Z,24.60
2023-10-20T07:20:59.832Z,24.55
2023-10-20T07:23:27.623Z,24.83
2023-10-20T07:25:55.351Z,25.10
2023-10-20T07:28:23.509Z,24.45
2023-10-20T07:30:51.461Z,24.35
2023-10-20T07:33:19.322Z,24.50
2023-10-20T07:35:47.258Z,24.88
2023-10-20T07:38:14.958Z,24.50
2023-10-20T07:40:42.944Z,23.30
2023-10-20T07:43:12.342Z,22.80
2023-10-20T07:45:41.869Z,23.17
2023-10-20T07:48:09.778Z,22.17
2023-10-20T07:50:38.034Z,20.00
2023-10-20T07:53:06.879Z,18.77
2023-10-20T07:55:34.741Z,19.70
2023-10-20T07:58:02.315Z,18.30
2023-10-20T08:00:31.288Z,19.88
2023-10-20T08:02:59.105Z,18.90
2023-10-20T08:05:27.681Z,18.30
2023-10-20T08:07:56.229Z,19.20
2023-10-20T08:10:24.495Z,18.05
2023-10-20T08:12:52.425Z,18.00
2023-10-20T08:15:20.694Z,17.92
2023-10-20T08:17:49.758Z,17.60
2023-10-20T08:20:17.751Z,18.40
2023-10-20T08:22:45.439Z,17.13
2023-10-20T08:25:13.276Z,17.00
2023-10-20T08:27:40.895Z,16.85
2023-10-20T08:30:09.105Z,17.25
2023-10-20T08:32:37.125Z,17.33
2023-10-20T08:35:06.642Z,17.02
2023-10-20T08:37:34.296Z,16.77
2023-10-20T08:40:02.012Z,16.15
2023-10-20T08:42:31.193Z,16.63
2023-10-20T08:44:58.919Z,17.15
2023-10-20T08:47:29.061Z,17.35
2023-10-20T08:49:56.928Z,16.73
2023-10-20T08:52:24.813Z,15.82
2023-10-20T08:54:53.582Z,16.52
2023-10-20T08:57:21.160Z,15.85
2023-10-20T08:59:52.499Z,17.58
2023-10-20T09:02:20.784Z,17.00
2023-10-20T09:04:54.934Z,18.13
2023-10-20T09:07:26.788Z,18.20
2023-10-20T09:09:54.403Z,18.25
2023-10-20T09:12:21.937Z,18.88
2023-10-20T09:14:49.796Z,19.20
2023-10-20T09:17:24.726Z,17.77
2023-10-20T09:19:52.691Z,17.75
2023-10-20T09:22:30.429Z,18.20
2023-10-20T09:24:58.404Z,18.50
2023-10-20T09:27:26.912Z,18.13
2023-10-20T09:29:57.588Z,18.20
2023-10-20T09:32:25.472Z,17.60
2023-10-20T09:34:55.493Z,18.40
2023-10-20T09:37:27.067Z,18.45
2023-10-20T09:39:56.282Z,17.83
2023-10-20T09:42:25.766Z,17.88
2023-10-20T09:45:04.551Z,18.38
2023-10-20T09:47:33.000Z,18.98
2023-10-20T09:50:01.530Z,18.08
2023-10-20T09:52:30.953Z,18.25
2023-10-20T09:54:59.526Z,19.02
2023-10-20T09:57:28.659Z,19.05
2023-10-20T09:59:56.396Z,19.95
2023-10-20T10:02:31.362Z,20.17
2023-10-20T10:04:59.475Z,20.17
2023-10-20T10:07:30.779Z,19.23
2023-10-20T10:09:58.776Z,19.05
2023-10-20T10:12:28.691Z,19.52
2023-10-20T10:15:15.309Z,19.10
2023-10-20T10:17:47.696Z,19.85
2023-10-20T10:20:25.664Z,20.98
2023-10-20T10:23:07.625Z,19.15
2023-10-20T10:25:54.916Z,19.25
2023-10-20T10:28:23.095Z,18.98
2023-10-20T10:30:54.463Z,17.00
2023-10-20T10:33:23.604Z,17.33
2023-10-20T10:35:51.785Z,16.13
2023-10-20T10:38:21.494Z,16.17
2023-10-20T10:40:49.648Z,16.33
2023-10-20T10:43:19.335Z,16.17
2023-10-20T10:45:46.801Z,15.50
2023-10-20T10:48:19.588Z,15.80
2023-10-20T10:50:49.188Z,15.70
2023-10-20T10:53:17.408Z,16.35
2023-10-20T10:55:45.302Z,15.88
2023-10-20T10:58:14.577Z,16.52
2023-10-20T11:00:43.237Z,16.85
2023-10-20T11:03:11.524Z,16.70
2023-10-20T11:05:40.572Z,16.75
2023-10-20T11:08:09.391Z,17.95
2023-10-20T11:10:38.931Z,19.08
2023-10-20T11:13:07.769Z,19.00
2023-10-20T11:15:36.646Z,18.08
2023-10-20T11:18:06.128Z,18.33
2023-10-20T11:20:35.172Z,18.13
2023-10-20T11:23:04.736Z,18.35
2023-10-20T11:25:32.387Z,18.00
2023-10-20T11:28:00.305Z,18.02
2023-10-20T11:30:28.513Z,17.27
2023-10-20T11:32:56.828Z,17.42
2023-10-20T11:35:28.628Z,16.23
2023-10-20T11:37:57.159Z,17.10
2023-10-20T11:40:25.287Z,17.05
2023-10-20T11:42:53.192Z,17.08
2023-10-20T11:45:21.906Z,17.63
2023-10-20T11:47:50.004Z,17.50
2023-10-20T11:50:23.311Z,18.42
2023-10-20T11:52:51.305Z,17.75
2023-10-20T11:55:19.794Z,18.23
2023-10-20T11:57:47.724Z,18.85
2023-10-20T12:00:15.489Z,18.17
2023-10-20T12:02:43.490Z,17.85
2023-10-20T12:05:11.568Z,18.55
2023-10-20T12:07:39.264Z,17.60
2023-10-20T12:10:07.408Z,17.70
2023-10-20T12:12:35.854Z,17.83
2023-10-20T12:15:04.275Z,17.58
2023-10-20T12:17:32.138Z,17.92
2023-10-20T12:19:59.992Z,18.08
2023-10-20T12:22:28.105Z,17.20
2023-10-20T12:24:56.253Z,17.25
2023-10-20T12:27:23.876Z,17.63
2023-10-20T12:29:51.437Z,17.42
2023-10-20T12:32:19.153Z,17.08
2023-10-20T12:34:46.894Z,16.50
2023-10-20T12:37:15.406Z,15.45
2023-10-20T12:39:43.665Z,18.25
2023-10-20T12:42:11.193Z,16.30
2023-10-20T12:44:40.046Z,16.83
2023-10-20T12:47:07.802Z,17.02
2023-10-20T12:49:35.626Z,17.83
2023-10-20T12:52:04.272Z,18.58
2023-10-20T12:54:32.085Z,18.52
2023-10-20T12:57:01.501Z,19.23
2023-10-20T12:59:30.159Z,19.73
2023-10-20T13:01:58.028Z,18.70
2023-10-20T13:04:25.862Z,18.23
2023-10-20T13:07:00.706Z,17.90
2023-10-20T13:09:29.234Z,17.30
2023-10-20T13:12:00.381Z,17.65
2023-10-20T13:14:29.675Z,16.52
2023-10-20T13:16:58.463Z,17.20
2023-10-20T13:19:26.187Z,17.33
2023-10-20T13:21:54.064Z,17.67
2023-10-20T13:24:22.005Z,17.15
2023-10-20T13:26:50.663Z,15.73
2023-10-20T13:29:18.256Z,13.60
2023-10-20T13:31:45.940Z,11.15
2023-10-20T13:34:13.685Z,10.75
2023-10-20T13:36:41.358Z,9.40
2023-10-20T13:41:39.972Z,8.32
2023-10-20T13:44:09.398Z,7.63
2023-10-20T13:46:37.008Z,7.25
2023-10-20T13:49:04.629Z,7.28
2023-10-20T13:51:32.128Z,7.38
2023-10-20T13:53:59.792Z,6.72
2023-10-20T13:56:28.014Z,6.07
2023-10-20T13:58:55.619Z,6.07
2023-10-20T14:01:23.727Z,6.28
2023-10-20T14:03:51.402Z,5.57
2023-10-20T14:06:19.274Z,5.93
2023-10-20T14:08:46.903Z,5.43
2023-10-20T14:11:16.043Z,5.88
2023-10-20T14:13:44.000Z,5.97
2023-10-20T14:16:11.543Z,5.40
2023-10-20T14:18:39.730Z,6.13
2023-10-20T14:21:07.750Z,6.22
2023-10-20T14:23:36.631Z,5.68
2023-10-20T14:26:04.458Z,6.20
2023-10-20T14:28:35.132Z,5.95
2023-10-20T14:31:03.350Z,5.97
2023-10-20T14:33:31.422Z,5.60
2023-10-20T14:35:59.265Z,5.80
2023-10-20T14:38:27.552Z,6.25
2023-10-20T14:41:05.193Z,6.05
2023-10-20T14:43:36.318Z,5.63
2023-10-20T14:46:05.161Z,5.57
2023-10-20T14:48:33.185Z,5.90
2023-10-20T14:51:01.857Z,5.95
2023-10-20T14:53:30.031Z,6.25
2023-10-20T14:55:57.712Z,5.80
2023-10-20T14:58:25.622Z,5.80
2023-10-20T15:00:53.392Z,5.57
2023-10-20T15:03:22.275Z,5.93
2023-10-20T15:05:51.074Z,6.18
2023-10-20T15:08:19.403Z,6.18
2023-10-20T15:10:46.979Z,6.07
2023-10-20T15:13:16.262Z,6.20
2023-10-20T15:15:44.066Z,5.97
2023-10-20T15:18:11.928Z,5.88
2023-10-20T15:20:41.582Z,5.78
2023-10-20T15:23:17.950Z,6.55
2023-10-20T15:25:46.726Z,6.22
2023-10-20T15:28:14.163Z,6.10
2023-10-20T15:30:41.819Z,6.68
2023-10-20T15:33:09.635Z,6.28
2023-10-20T15:35:40.241Z,5.40
2023-10-20T15:38:11.389Z,6.57
2023-10-20T15:40:39.658Z,6.28
2023-10-20T15:43:07.364Z,6.03
2023-10-20T15:45:34.897Z,5.78
2023-10-20T15:48:04.500Z,5.78
2023-10-20T15:50:34.037Z,5.50
2023-10-20T15:53:04.045Z,5.82
2023-10-20T15:55:31.897Z,6.13
2023-10-20T15:57:59.747Z,6.10
2023-10-20T16:00:27.913Z,6.03
2023-10-20T16:02:55.488Z,5.95
2023-10-20T16:05:23.414Z,5.80
2023-10-20T16:07:51.540Z,5.75
2023-10-20T16:10:19.253Z,5.95
2023-10-20T16:12:47.069Z,5.72
2023-10-20T16:15:15.077Z,6.50
2023-10-20T16:17:42.693Z,6.18
2023-10-20T16:20:11.073Z,6.20
2023-10-20T16:22:39.237Z,5.75
2023-10-20T16:25:07.252Z,6.00
2023-10-20T16:27:35.189Z,6.13
2023-10-20T16:30:04.637Z,6.10
2023-10-20T16:32:32.562Z,6.07
2023-10-20T16:35:00.160Z,6.10
2023-10-20T16:37:29.742Z,5.45
2023-10-20T16:39:57.303Z,6.25
2023-10-20T16:42:25.870Z,6.05
2023-10-20T16:44:54.063Z,6.22
2023-10-20T16:47:21.756Z,6.20
2023-10-20T16:49:52.400Z,6.28
2023-10-20T16:52:21.095Z,6.30
2023-10-20T16:54:52.753Z,6.57
2023-10-20T16:57:20.566Z,6.43
2023-10-20T16:59:48.349Z,6.05
2023-10-20T17:02:16.533Z,5.90
2023-10-20T17:04:44.142Z,6.32
2023-10-20T17:07:11.692Z,6.20
2023-10-20T17:09:39.309Z,6.10
2023-10-20T17:12:07.776Z,6.25
2023-10-20T17:14:35.711Z,6.35
2023-10-20T17:17:03.769Z,6.22
2023-10-20T17:19:31.333Z,6.68
2023-10-20T17:21:59.313Z,6.60
2023-10-20T17:24:27.620Z,6.40
2023-10-20T17:26:56.123Z,6.40
2023-10-20T17:29:24.019Z,6.45
2023-10-20T17:31:51.575Z,6.80
2023-10-20T17:34:19.368Z,7.78
2023-10-20T17:36:46.879Z,9.63
2023-10-20T17:39:14.725Z,7.97
2023-10-20T17:41:42.331Z,7.72
2023-10-20T17:44:10.278Z,8.15
2023-10-20T17:46:37.825Z,7.70
2023-10-20T17:49:06.648Z,8.07
2023-10-20T17:51:34.325Z,8.60
2023-10-20T17:54:02.308Z,8.57
2023-10-20T17:56:29.912Z,8.40
2023-10-20T17:58:57.768Z,8.23
2023-10-20T18:01:25.422Z,9.27
2023-10-20T18:03:53.286Z,9.90
2023-10-20T18:06:22.129Z,9.82
2023-10-20T18:08:52.632Z,8.85
2023-10-20T18:11:22.257Z,9.82
2023-10-20T18:13:52.667Z,9.65
2023-10-20T18:16:22.621Z,8.45
2023-10-20T18:18:51.840Z,8.13
2023-10-20T18:21:20.058Z,8.32
2023-10-20T18:23:48.413Z,7.15
2023-10-20T18:26:16.266Z,7.47
2023-10-20T18:28:45.125Z,9.27
2023-10-20T18:31:13.592Z,9.85
2023-10-20T18:33:41.636Z,9.98
2023-10-20T18:36:10.009Z,9.57
2023-10-20T18:38:37.661Z,10.20
2023-10-20T18:41:06.457Z,9.65
2023-10-20T18:43:34.934Z,9.52
2023-10-20T18:46:03.711Z,9.55
2023-10-20T18:48:31.498Z,9.48
2023-10-20T18:51:13.151Z,9.25
2023-10-20T18:53:42.550Z,10.05
2023-10-20T18:56:11.044Z,8.15
2023-10-20T18:58:38.670Z,7.63
2023-10-20T19:01:07.770Z,7.03
2023-10-20T19:03:35.646Z,7.32
2023-10-20T19:06:04.132Z,7.30
2023-10-20T19:08:32.037Z,7.45
2023-10-20T19:11:06.063Z,7.32
2023-10-20T19:13:35.214Z,7.05
2023-10-20T19:16:03.043Z,7.68
2023-10-20T19:18:30.825Z,7.28
2023-10-20T19:21:01.866Z,7.28
2023-10-20T19:23:29.738Z,7.22
2023-10-20T19:26:15.485Z,8.00
2023-10-20T19:28:43.704Z,8.05
2023-10-20T19:31:13.149Z,8.13
2023-10-20T19:33:41.343Z,7.30
2023-10-20T19:36:10.967Z,8.20
2023-10-20T19:38:39.471Z,7.07
2023-10-20T19:41:09.384Z,8.55
2023-10-20T19:43:37.143Z,8.15
2023-10-20T19:46:04.667Z,7.07
2023-10-20T19:48:32.520Z,7.50
2023-10-20T19:51:01.153Z,6.93
2023-10-20T19:53:28.911Z,7.82
2023-10-20T19:55:56.485Z,7.20
2023-10-20T19:58:24.438Z,7.30
2023-10-20T20:00:52.468Z,7.40
2023-10-20T20:03:20.335Z,7.30
2023-10-20T20:05:48.232Z,6.70
2023-10-20T20:08:15.849Z,7.82
2023-10-20T20:10:43.642Z,7.93
2023-10-20T20:13:11.563Z,7.18
2023-10-20T20:15:39.207Z,6.97
2023-10-20T20:18:07.287Z,7.80
2023-10-20T20:20:34.897Z,7.57
2023-10-20T20:23:02.756Z,7.28
2023-10-20T20:25:30.403Z,7.15
2023-10-20T20:27:58.297Z,7.78
2023-10-20T20:30:25.689Z,7.68
2023-10-20T20:32:53.617Z,10.90
2023-10-20T20:35:23.088Z,9.80
2023-10-20T20:37:51.149Z,10.05
2023-10-20T20:40:18.795Z,10.00
2023-10-20T20:42:48.195Z,10.32
2023-10-20T20:45:15.995Z,11.32
2023-10-20T20:47:43.917Z,11.13
2023-10-20T20:50:22.372Z,10.55
2023-10-20T20:52:58.436Z,11.65
2023-10-20T20:55:26.371Z,11.90
2023-10-20T20:57:54.472Z,11.48
2023-10-20T21:00:22.306Z,11.57
2023-10-20T21:02:50.560Z,11.27
2023-10-20T21:05:18.370Z,11.60
2023-10-20T21:07:45.942Z,11.48
2023-10-20T21:10:14.078Z,12.10
2023-10-20T21:12:42.994Z,12.45
2023-10-20T21:15:14.274Z,12.82
2023-10-20T21:17:42.338Z,13.20
2023-10-20T21:20:10.645Z,14.60
2023-10-20T21:22:38.459Z,15.68
2023-10-20T21:25:06.613Z,15.13
2023-10-20T21:27:34.173Z,15.80
2023-10-20T21:30:01.829Z,15.65
2023-10-20T21:32:29.551Z,16.42
2023-10-20T21:34:57.357Z,16.05
2023-10-20T21:37:25.023Z,14.63
2023-10-20T21:39:53.871Z,15.15
2023-10-20T21:42:21.431Z,14.88
2023-10-20T21:44:48.975Z,14.73
2023-10-20T21:47:17.800Z,14.63
2023-10-20T21:49:45.641Z,14.00
2023-10-20T21:52:13.277Z,14.43
2023-10-20T21:54:41.128Z,14.73
2023-10-20T21:57:08.774Z,13.75
2023-10-20T21:59:36.841Z,13.25
2023-10-20T22:02:09.657Z,12.93
2023-10-20T22:04:38.705Z,12.77
2023-10-20T22:07:06.537Z,11.90
2023-10-20T22:09:46.596Z,13.50
2023-10-20T22:12:20.916Z,12.85
2023-10-20T22:14:48.804Z,14.43
2023-10-20T22:17:17.366Z,14.40
2023-10-20T22:19:45.658Z,14.32
2023-10-20T22:22:13.537Z,13.75
2023-10-20T22:24:41.573Z,14.23
2023-10-20T22:27:10.151Z,14.23
2023-10-20T22:29:38.683Z,14.63
2023-10-20T22:32:06.888Z,15.05
2023-10-20T22:34:35.434Z,15.02
2023-10-20T22:37:03.483Z,14.07
2023-10-20T22:39:31.229Z,13.88
2023-10-20T22:42:01.639Z,14.10
2023-10-20T22:44:29.786Z,13.90
2023-10-20T22:46:57.740Z,15.85
2023-10-20T22:49:26.234Z,16.20
2023-10-20T22:51:54.628Z,14.95
2023-10-20T22:54:22.900Z,15.30
2023-10-20T22:56:51.211Z,15.63
2023-10-20T22:59:20.786Z,15.32
2023-10-20T23:01:48.572Z,15.45
2023-10-20T23:04:18.887Z,15.02
2023-10-20T23:06:48.404Z,15.98
2023-10-20T23:09:16.505Z,15.23
2023-10-20T23:11:44.962Z,15.00
2023-10-20T23:14:13.517Z,15.32
2023-10-20T23:16:42.637Z,16.25
2023-10-20T23:19:11.226Z,12.68
2023-10-20T23:21:38.881Z,11.73
2023-10-20T23:24:06.888Z,11.40
2023-10-20T23:26:34.455Z,10.95
2023-10-20T23:29:02.005Z,11.65
2023-10-20T23:31:29.630Z,11.70
2023-10-20T23:33:57.446Z,13.57
2023-10-20T23:36:25.112Z,13.90
2023-10-20T23:38:52.652Z,13.75
2023-10-20T23:41:20.476Z,14.48
2023-10-20T23:43:48.166Z,14.82
2023-10-20T23:46:15.924Z,15.52
2023-10-20T23:48:43.567Z,15.05
2023-10-20T23:51:11.466Z,15.40
2023-10-20T23:53:39.409Z,15.27
2023-10-20T23:56:07.499Z,14.30
2023-10-20T23:58:35.297Z,14.10
